sensor_id;sensor_type;location;lat;lon;timestamp;P1;durP1;ratioP1;P2;durP2;ratioP2
52180;SDS011;38158;53.338;6.514;2023-05-14T00:00:53;7.25;;;4.20;;
52180;SDS011;38158;53.338;6.514;2023-05-14T00:03:19;8.15;;;4.50;;
52180;SDS011;38158;53.338;6.514;2023-05-14T00:05:44;6.93;;;3.65;;
52180;SDS011;38158;53.338;6.514;2023-05-14T00:08:10;8.43;;;4.00;;
52180;SDS011;38158;53.338;6.514;2023-05-14T00:10:36;6.60;;;3.60;;
52180;SDS011;38158;53.338;6.514;2023-05-14T00:13:01;10.10;;;4.20;;
52180;SDS011;38158;53.338;6.514;2023-05-14T00:15:27;8.02;;;4.10;;
52180;SDS011;38158;53.338;6.514;2023-05-14T00:17:53;6.57;;;3.60;;
52180;SDS011;38158;53.338;6.514;2023-05-14T00:20:18;8.93;;;3.85;;
52180;SDS011;38158;53.338;6.514;2023-05-14T00:22:44;8.02;;;3.30;;
52180;SDS011;38158;53.338;6.514;2023-05-14T00:25:10;8.38;;;3.50;;
52180;SDS011;38158;53.338;6.514;2023-05-14T00:27:36;11.02;;;3.65;;
52180;SDS011;38158;53.338;6.514;2023-05-14T00:30:03;6.38;;;3.03;;
52180;SDS011;38158;53.338;6.514;2023-05-14T00:32:30;7.00;;;3.28;;
52180;SDS011;38158;53.338;6.514;2023-05-14T00:34:56;10.80;;;3.80;;
52180;SDS011;38158;53.338;6.514;2023-05-14T00:37:21;7.97;;;3.72;;
52180;SDS011;38158;53.338;6.514;2023-05-14T00:39:47;10.65;;;4.50;;
52180;SDS011;38158;53.338;6.514;2023-05-14T00:42:13;10.20;;;4.28;;
52180;SDS011;38158;53.338;6.514;2023-05-14T00:44:38;10.18;;;4.78;;
52180;SDS011;38158;53.338;6.514;2023-05-14T00:47:04;7.38;;;4.25;;
52180;SDS011;38158;53.338;6.514;2023-05-14T00:49:30;8.27;;;5.07;;
52180;SDS011;38158;53.338;6.514;2023-05-14T00:51:56;11.93;;;5.13;;
52180;SDS011;38158;53.338;6.514;2023-05-14T00:54:24;10.73;;;5.28;;
52180;SDS011;38158;53.338;6.514;2023-05-14T00:56:50;12.48;;;6.45;;
52180;SDS011;38158;53.338;6.514;2023-05-14T00:59:17;10.57;;;5.88;;
52180;SDS011;38158;53.338;6.514;2023-05-14T01:01:43;11.98;;;5.97;;
52180;SDS011;38158;53.338;6.514;2023-05-14T01:04:09;12.43;;;6.10;;
52180;SDS011;38158;53.338;6.514;2023-05-14T01:06:43;8.40;;;5.30;;
52180;SDS011;38158;53.338;6.514;2023-05-14T01:09:25;9.75;;;5.63;;
52180;SDS011;38158;53.338;6.514;2023-05-14T01:17:16;12.13;;;7.50;;
52180;SDS011;38158;53.338;6.514;2023-05-14T01:19:45;9.35;;;5.35;;
52180;SDS011;38158;53.338;6.514;2023-05-14T01:22:12;8.90;;;5.47;;
52180;SDS011;38158;53.338;6.514;2023-05-14T01:24:38;11.30;;;6.18;;
52180;SDS011;38158;53.338;6.514;2023-05-14T01:29:33;12.15;;;5.95;;
52180;SDS011;38158;53.338;6.514;2023-05-14T01:32:03;13.73;;;6.15;;
52180;SDS011;38158;53.338;6.514;2023-05-14T01:34:31;10.95;;;5.93;;
52180;SDS011;38158;53.338;6.514;2023-05-14T01:36:59;11.70;;;5.78;;
52180;SDS011;38158;53.338;6.514;2023-05-14T01:39:25;11.63;;;4.93;;
52180;SDS011;38158;53.338;6.514;2023-05-14T01:41:52;14.50;;;6.20;;
52180;SDS011;38158;53.338;6.514;2023-05-14T01:44:19;12.25;;;5.93;;
52180;SDS011;38158;53.338;6.514;2023-05-14T01:46:45;11.80;;;5.67;;
52180;SDS011;38158;53.338;6.514;2023-05-14T01:49:11;15.27;;;5.57;;
52180;SDS011;38158;53.338;6.514;2023-05-14T01:51:37;9.57;;;4.75;;
52180;SDS011;38158;53.338;6.514;2023-05-14T01:54:02;11.20;;;4.63;;
52180;SDS011;38158;53.338;6.514;2023-05-14T01:56:28;12.45;;;4.55;;
52180;SDS011;38158;53.338;6.514;2023-05-14T01:58:54;11.85;;;4.78;;
52180;SDS011;38158;53.338;6.514;2023-05-14T02:01:21;14.13;;;4.63;;
52180;SDS011;38158;53.338;6.514;2023-05-14T02:03:46;13.57;;;4.18;;
52180;SDS011;38158;53.338;6.514;2023-05-14T02:06:12;9.32;;;3.88;;
52180;SDS011;38158;53.338;6.514;2023-05-14T02:08:38;10.02;;;4.88;;
52180;SDS011;38158;53.338;6.514;2023-05-14T02:11:04;12.32;;;5.10;;
52180;SDS011;38158;53.338;6.514;2023-05-14T02:13:29;10.10;;;4.60;;
52180;SDS011;38158;53.338;6.514;2023-05-14T02:15:55;7.68;;;4.40;;
52180;SDS011;38158;53.338;6.514;2023-05-14T02:18:21;11.45;;;5.40;;
52180;SDS011;38158;53.338;6.514;2023-05-14T02:20:46;9.50;;;5.13;;
52180;SDS011;38158;53.338;6.514;2023-05-14T02:23:12;12.05;;;4.80;;
52180;SDS011;38158;53.338;6.514;2023-05-14T02:25:38;9.07;;;5.00;;
52180;SDS011;38158;53.338;6.514;2023-05-14T02:28:03;11.27;;;5.40;;
52180;SDS011;38158;53.338;6.514;2023-05-14T02:30:29;9.05;;;5.28;;
52180;SDS011;38158;53.338;6.514;2023-05-14T02:32:55;13.30;;;5.65;;
52180;SDS011;38158;53.338;6.514;2023-05-14T02:35:21;16.40;;;5.37;;
52180;SDS011;38158;53.338;6.514;2023-05-14T02:37:47;10.05;;;5.22;;
52180;SDS011;38158;53.338;6.514;2023-05-14T02:40:13;13.20;;;5.20;;
52180;SDS011;38158;53.338;6.514;2023-05-14T02:42:39;10.30;;;4.72;;
52180;SDS011;38158;53.338;6.514;2023-05-14T02:45:04;11.15;;;4.80;;
52180;SDS011;38158;53.338;6.514;2023-05-14T02:47:31;12.95;;;5.30;;
52180;SDS011;38158;53.338;6.514;2023-05-14T02:49:56;16.50;;;5.03;;
52180;SDS011;38158;53.338;6.514;2023-05-14T02:52:22;8.95;;;4.78;;
52180;SDS011;38158;53.338;6.514;2023-05-14T02:54:48;14.45;;;5.97;;
52180;SDS011;38158;53.338;6.514;2023-05-14T02:57:13;8.30;;;4.43;;
52180;SDS011;38158;53.338;6.514;2023-05-14T02:59:39;12.73;;;5.00;;
52180;SDS011;38158;53.338;6.514;2023-05-14T03:02:05;7.78;;;4.47;;
52180;SDS011;38158;53.338;6.514;2023-05-14T03:04:31;15.00;;;5.70;;
52180;SDS011;38158;53.338;6.514;2023-05-14T03:06:56;13.85;;;5.78;;
52180;SDS011;38158;53.338;6.514;2023-05-14T03:09:22;14.18;;;5.13;;
52180;SDS011;38158;53.338;6.514;2023-05-14T03:11:48;14.05;;;4.78;;
52180;SDS011;38158;53.338;6.514;2023-05-14T03:14:14;10.90;;;4.07;;
52180;SDS011;38158;53.338;6.514;2023-05-14T03:16:40;12.35;;;5.10;;
52180;SDS011;38158;53.338;6.514;2023-05-14T03:19:06;17.45;;;5.45;;
52180;SDS011;38158;53.338;6.514;2023-05-14T03:21:33;11.52;;;4.03;;
52180;SDS011;38158;53.338;6.514;2023-05-14T03:23:59;9.88;;;3.95;;
52180;SDS011;38158;53.338;6.514;2023-05-14T03:26:25;7.75;;;3.80;;
52180;SDS011;38158;53.338;6.514;2023-05-14T03:28:50;12.10;;;4.70;;
52180;SDS011;38158;53.338;6.514;2023-05-14T03:31:16;15.35;;;4.43;;
52180;SDS011;38158;53.338;6.514;2023-05-14T03:33:42;12.13;;;4.32;;
52180;SDS011;38158;53.338;6.514;2023-05-14T03:36:08;15.55;;;5.07;;
52180;SDS011;38158;53.338;6.514;2023-05-14T03:38:33;8.75;;;3.75;;
52180;SDS011;38158;53.338;6.514;2023-05-14T03:40:59;9.50;;;3.67;;
52180;SDS011;38158;53.338;6.514;2023-05-14T03:43:25;9.52;;;3.70;;
52180;SDS011;38158;53.338;6.514;2023-05-14T03:45:50;11.90;;;3.92;;
52180;SDS011;38158;53.338;6.514;2023-05-14T03:48:19;8.93;;;4.10;;
52180;SDS011;38158;53.338;6.514;2023-05-14T03:50:45;11.35;;;3.85;;
52180;SDS011;38158;53.338;6.514;2023-05-14T03:53:11;18.10;;;4.50;;
52180;SDS011;38158;53.338;6.514;2023-05-14T03:55:37;17.40;;;4.55;;
52180;SDS011;38158;53.338;6.514;2023-05-14T03:58:02;8.18;;;3.72;;
52180;SDS011;38158;53.338;6.514;2023-05-14T04:00:31;10.40;;;4.28;;
52180;SDS011;38158;53.338;6.514;2023-05-14T04:02:57;8.32;;;4.35;;
52180;SDS011;38158;53.338;6.514;2023-05-14T04:05:23;9.30;;;4.53;;
52180;SDS011;38158;53.338;6.514;2023-05-14T04:07:48;9.07;;;4.88;;
52180;SDS011;38158;53.338;6.514;2023-05-14T04:10:16;10.20;;;4.65;;
52180;SDS011;38158;53.338;6.514;2023-05-14T04:12:42;12.48;;;5.07;;
52180;SDS011;38158;53.338;6.514;2023-05-14T04:15:07;13.15;;;4.95;;
52180;SDS011;38158;53.338;6.514;2023-05-14T04:17:34;16.67;;;4.80;;
52180;SDS011;38158;53.338;6.514;2023-05-14T04:19:59;13.75;;;5.10;;
52180;SDS011;38158;53.338;6.514;2023-05-14T04:22:25;12.52;;;5.47;;
52180;SDS011;38158;53.338;6.514;2023-05-14T04:24:51;14.90;;;6.00;;
52180;SDS011;38158;53.338;6.514;2023-05-14T04:27:20;12.45;;;5.28;;
52180;SDS011;38158;53.338;6.514;2023-05-14T04:29:46;11.15;;;5.93;;
52180;SDS011;38158;53.338;6.514;2023-05-14T04:32:12;17.05;;;5.72;;
52180;SDS011;38158;53.338;6.514;2023-05-14T04:34:38;13.02;;;5.65;;
52180;SDS011;38158;53.338;6.514;2023-05-14T04:37:05;15.70;;;6.63;;
52180;SDS011;38158;53.338;6.514;2023-05-14T04:39:30;15.77;;;5.35;;
52180;SDS011;38158;53.338;6.514;2023-05-14T04:41:56;14.85;;;5.57;;
52180;SDS011;38158;53.338;6.514;2023-05-14T04:44:22;15.98;;;5.70;;
52180;SDS011;38158;53.338;6.514;2023-05-14T04:46:47;11.25;;;4.30;;
52180;SDS011;38158;53.338;6.514;2023-05-14T04:49:13;12.40;;;4.30;;
52180;SDS011;38158;53.338;6.514;2023-05-14T04:51:39;15.13;;;5.07;;
52180;SDS011;38158;53.338;6.514;2023-05-14T04:54:05;11.30;;;4.38;;
52180;SDS011;38158;53.338;6.514;2023-05-14T04:56:31;15.50;;;4.95;;
52180;SDS011;38158;53.338;6.514;2023-05-14T04:58:56;10.55;;;4.90;;
52180;SDS011;38158;53.338;6.514;2023-05-14T05:01:22;16.33;;;4.82;;
52180;SDS011;38158;53.338;6.514;2023-05-14T05:03:47;12.38;;;5.15;;
52180;SDS011;38158;53.338;6.514;2023-05-14T05:06:13;16.98;;;4.97;;
52180;SDS011;38158;53.338;6.514;2023-05-14T05:08:39;16.38;;;5.32;;
52180;SDS011;38158;53.338;6.514;2023-05-14T05:11:05;10.43;;;4.43;;
52180;SDS011;38158;53.338;6.514;2023-05-14T05:13:31;13.55;;;4.32;;
52180;SDS011;38158;53.338;6.514;2023-05-14T05:15:57;9.80;;;3.83;;
52180;SDS011;38158;53.338;6.514;2023-05-14T05:18:23;9.40;;;4.00;;
52180;SDS011;38158;53.338;6.514;2023-05-14T05:20:48;9.20;;;3.80;;
52180;SDS011;38158;53.338;6.514;2023-05-14T05:23:14;8.73;;;3.05;;
52180;SDS011;38158;53.338;6.514;2023-05-14T05:25:40;13.70;;;3.63;;
52180;SDS011;38158;53.338;6.514;2023-05-14T05:28:05;7.97;;;3.33;;
52180;SDS011;38158;53.338;6.514;2023-05-14T05:30:31;8.48;;;3.95;;
52180;SDS011;38158;53.338;6.514;2023-05-14T05:32:57;18.13;;;4.03;;
52180;SDS011;38158;53.338;6.514;2023-05-14T05:35:23;17.63;;;4.75;;
52180;SDS011;38158;53.338;6.514;2023-05-14T05:37:48;11.38;;;3.33;;
52180;SDS011;38158;53.338;6.514;2023-05-14T05:40:14;13.88;;;3.80;;
52180;SDS011;38158;53.338;6.514;2023-05-14T05:42:40;11.70;;;4.07;;
52180;SDS011;38158;53.338;6.514;2023-05-14T05:45:06;13.77;;;4.68;;
52180;SDS011;38158;53.338;6.514;2023-05-14T05:47:32;11.40;;;4.80;;
52180;SDS011;38158;53.338;6.514;2023-05-14T05:49:58;12.90;;;4.70;;
52180;SDS011;38158;53.338;6.514;2023-05-14T05:52:24;11.48;;;4.60;;
52180;SDS011;38158;53.338;6.514;2023-05-14T05:54:50;12.77;;;4.75;;
52180;SDS011;38158;53.338;6.514;2023-05-14T05:57:16;15.50;;;5.00;;
52180;SDS011;38158;53.338;6.514;2023-05-14T05:59:41;8.98;;;4.20;;
52180;SDS011;38158;53.338;6.514;2023-05-14T06:02:07;9.85;;;4.30;;
52180;SDS011;38158;53.338;6.514;2023-05-14T06:04:33;10.93;;;4.25;;
52180;SDS011;38158;53.338;6.514;2023-05-14T06:06:58;9.63;;;5.82;;
52180;SDS011;38158;53.338;6.514;2023-05-14T06:09:24;14.35;;;5.20;;
52180;SDS011;38158;53.338;6.514;2023-05-14T06:11:50;11.02;;;4.75;;
52180;SDS011;38158;53.338;6.514;2023-05-14T06:14:15;9.60;;;4.38;;
52180;SDS011;38158;53.338;6.514;2023-05-14T06:16:41;12.38;;;4.95;;
52180;SDS011;38158;53.338;6.514;2023-05-14T06:19:06;8.60;;;4.50;;
52180;SDS011;38158;53.338;6.514;2023-05-14T06:21:32;7.78;;;4.60;;
52180;SDS011;38158;53.338;6.514;2023-05-14T06:23:58;12.80;;;5.05;;
52180;SDS011;38158;53.338;6.514;2023-05-14T06:26:24;7.70;;;3.85;;
52180;SDS011;38158;53.338;6.514;2023-05-14T06:28:50;10.30;;;4.40;;
52180;SDS011;38158;53.338;6.514;2023-05-14T06:31:16;9.38;;;4.68;;
52180;SDS011;38158;53.338;6.514;2023-05-14T06:33:42;12.30;;;5.05;;
52180;SDS011;38158;53.338;6.514;2023-05-14T06:36:09;8.50;;;4.20;;
52180;SDS011;38158;53.338;6.514;2023-05-14T06:38:35;13.38;;;4.53;;
52180;SDS011;38158;53.338;6.514;2023-05-14T06:41:01;10.10;;;4.57;;
52180;SDS011;38158;53.338;6.514;2023-05-14T06:43:27;10.65;;;4.47;;
52180;SDS011;38158;53.338;6.514;2023-05-14T06:45:52;8.27;;;3.72;;
52180;SDS011;38158;53.338;6.514;2023-05-14T06:48:18;12.02;;;3.30;;
52180;SDS011;38158;53.338;6.514;2023-05-14T06:50:45;11.52;;;3.63;;
52180;SDS011;38158;53.338;6.514;2023-05-14T06:53:11;12.18;;;3.45;;
52180;SDS011;38158;53.338;6.514;2023-05-14T06:55:38;10.75;;;3.33;;
52180;SDS011;38158;53.338;6.514;2023-05-14T06:58:07;13.02;;;3.67;;
52180;SDS011;38158;53.338;6.514;2023-05-14T07:00:33;16.05;;;4.40;;
52180;SDS011;38158;53.338;6.514;2023-05-14T07:02:59;10.98;;;4.35;;
52180;SDS011;38158;53.338;6.514;2023-05-14T07:05:25;10.27;;;3.60;;
52180;SDS011;38158;53.338;6.514;2023-05-14T07:07:50;11.60;;;3.20;;
52180;SDS011;38158;53.338;6.514;2023-05-14T07:10:16;8.15;;;3.05;;
52180;SDS011;38158;53.338;6.514;2023-05-14T07:12:42;11.15;;;3.20;;
52180;SDS011;38158;53.338;6.514;2023-05-14T07:15:08;8.82;;;3.70;;
52180;SDS011;38158;53.338;6.514;2023-05-14T07:17:34;8.75;;;3.20;;
52180;SDS011;38158;53.338;6.514;2023-05-14T07:20:00;7.03;;;3.33;;
52180;SDS011;38158;53.338;6.514;2023-05-14T07:22:25;9.60;;;3.08;;
52180;SDS011;38158;53.338;6.514;2023-05-14T07:24:51;14.35;;;4.13;;
52180;SDS011;38158;53.338;6.514;2023-05-14T07:27:17;8.95;;;3.17;;
52180;SDS011;38158;53.338;6.514;2023-05-14T07:29:42;8.82;;;2.78;;
52180;SDS011;38158;53.338;6.514;2023-05-14T07:32:08;9.98;;;3.70;;
52180;SDS011;38158;53.338;6.514;2023-05-14T07:34:34;10.80;;;3.28;;
52180;SDS011;38158;53.338;6.514;2023-05-14T07:37:00;7.68;;;3.47;;
52180;SDS011;38158;53.338;6.514;2023-05-14T07:39:26;8.93;;;3.60;;
52180;SDS011;38158;53.338;6.514;2023-05-14T07:41:52;11.07;;;4.13;;
52180;SDS011;38158;53.338;6.514;2023-05-14T07:44:20;7.80;;;3.90;;
52180;SDS011;38158;53.338;6.514;2023-05-14T07:46:46;9.73;;;3.70;;
52180;SDS011;38158;53.338;6.514;2023-05-14T07:49:12;9.90;;;3.20;;
52180;SDS011;38158;53.338;6.514;2023-05-14T07:51:37;8.52;;;3.88;;
52180;SDS011;38158;53.338;6.514;2023-05-14T07:54:03;12.52;;;4.50;;
52180;SDS011;38158;53.338;6.514;2023-05-14T07:56:29;8.30;;;3.05;;
52180;SDS011;38158;53.338;6.514;2023-05-14T07:58:55;8.13;;;3.22;;
52180;SDS011;38158;53.338;6.514;2023-05-14T08:01:21;10.68;;;3.08;;
52180;SDS011;38158;53.338;6.514;2023-05-14T08:03:47;10.68;;;3.88;;
52180;SDS011;38158;53.338;6.514;2023-05-14T08:06:12;9.65;;;3.15;;
52180;SDS011;38158;53.338;6.514;2023-05-14T08:08:38;10.70;;;4.00;;
52180;SDS011;38158;53.338;6.514;2023-05-14T08:11:04;13.90;;;3.92;;
52180;SDS011;38158;53.338;6.514;2023-05-14T08:13:30;9.68;;;3.28;;
52180;SDS011;38158;53.338;6.514;2023-05-14T08:15:56;7.57;;;2.83;;
52180;SDS011;38158;53.338;6.514;2023-05-14T08:18:22;7.55;;;2.75;;
52180;SDS011;38158;53.338;6.514;2023-05-14T08:20:47;8.90;;;3.00;;
52180;SDS011;38158;53.338;6.514;2023-05-14T08:23:13;9.48;;;3.25;;
52180;SDS011;38158;53.338;6.514;2023-05-14T08:25:39;10.05;;;2.80;;
52180;SDS011;38158;53.338;6.514;2023-05-14T08:28:05;11.30;;;3.45;;
52180;SDS011;38158;53.338;6.514;2023-05-14T08:30:31;9.23;;;3.42;;
52180;SDS011;38158;53.338;6.514;2023-05-14T08:32:57;8.25;;;3.05;;
52180;SDS011;38158;53.338;6.514;2023-05-14T08:35:23;8.80;;;3.65;;
52180;SDS011;38158;53.338;6.514;2023-05-14T08:37:49;9.90;;;3.50;;
52180;SDS011;38158;53.338;6.514;2023-05-14T08:40:15;9.43;;;3.55;;
52180;SDS011;38158;53.338;6.514;2023-05-14T08:42:41;8.38;;;4.03;;
52180;SDS011;38158;53.338;6.514;2023-05-14T08:45:18;8.10;;;3.35;;
52180;SDS011;38158;53.338;6.514;2023-05-14T08:47:46;10.10;;;3.65;;
52180;SDS011;38158;53.338;6.514;2023-05-14T08:50:14;7.97;;;3.50;;
52180;SDS011;38158;53.338;6.514;2023-05-14T08:52:40;10.98;;;3.92;;
52180;SDS011;38158;53.338;6.514;2023-05-14T08:55:06;9.30;;;3.67;;
52180;SDS011;38158;53.338;6.514;2023-05-14T08:57:32;8.60;;;4.13;;
52180;SDS011;38158;53.338;6.514;2023-05-14T08:59:58;11.65;;;3.60;;
52180;SDS011;38158;53.338;6.514;2023-05-14T09:02:27;8.25;;;3.55;;
52180;SDS011;38158;53.338;6.514;2023-05-14T09:04:56;8.77;;;3.05;;
52180;SDS011;38158;53.338;6.514;2023-05-14T09:07:22;10.32;;;3.45;;
52180;SDS011;38158;53.338;6.514;2023-05-14T09:09:48;8.25;;;2.97;;
52180;SDS011;38158;53.338;6.514;2023-05-14T09:12:15;7.90;;;3.58;;
52180;SDS011;38158;53.338;6.514;2023-05-14T09:14:41;11.13;;;3.72;;
52180;SDS011;38158;53.338;6.514;2023-05-14T09:17:08;10.27;;;4.07;;
52180;SDS011;38158;53.338;6.514;2023-05-14T09:19:36;8.57;;;3.90;;
52180;SDS011;38158;53.338;6.514;2023-05-14T09:22:16;5.63;;;3.42;;
52180;SDS011;38158;53.338;6.514;2023-05-14T09:24:42;9.77;;;3.83;;
52180;SDS011;38158;53.338;6.514;2023-05-14T09:27:09;7.95;;;3.70;;
52180;SDS011;38158;53.338;6.514;2023-05-14T09:29:43;9.88;;;3.47;;
52180;SDS011;38158;53.338;6.514;2023-05-14T09:32:08;8.30;;;3.45;;
52180;SDS011;38158;53.338;6.514;2023-05-14T09:34:34;6.38;;;3.75;;
52180;SDS011;38158;53.338;6.514;2023-05-14T09:37:04;10.40;;;4.00;;
52180;SDS011;38158;53.338;6.514;2023-05-14T09:39:32;11.73;;;4.20;;
52180;SDS011;38158;53.338;6.514;2023-05-14T09:42:00;10.98;;;4.07;;
52180;SDS011;38158;53.338;6.514;2023-05-14T09:44:26;8.07;;;3.90;;
52180;SDS011;38158;53.338;6.514;2023-05-14T09:46:52;6.35;;;3.70;;
52180;SDS011;38158;53.338;6.514;2023-05-14T09:49:18;9.20;;;3.70;;
52180;SDS011;38158;53.338;6.514;2023-05-14T09:51:45;8.38;;;3.85;;
52180;SDS011;38158;53.338;6.514;2023-05-14T09:54:10;6.38;;;3.70;;
52180;SDS011;38158;53.338;6.514;2023-05-14T09:56:36;10.48;;;4.88;;
52180;SDS011;38158;53.338;6.514;2023-05-14T09:59:03;8.18;;;4.18;;
52180;SDS011;38158;53.338;6.514;2023-05-14T10:01:30;7.10;;;4.10;;
52180;SDS011;38158;53.338;6.514;2023-05-14T10:03:57;6.80;;;4.10;;
52180;SDS011;38158;53.338;6.514;2023-05-14T10:06:24;5.63;;;3.90;;
52180;SDS011;38158;53.338;6.514;2023-05-14T10:08:53;12.18;;;4.63;;
52180;SDS011;38158;53.338;6.514;2023-05-14T10:11:22;13.80;;;4.28;;
52180;SDS011;38158;53.338;6.514;2023-05-14T10:16:30;7.18;;;3.95;;
52180;SDS011;38158;53.338;6.514;2023-05-14T10:19:08;9.02;;;4.13;;
52180;SDS011;38158;53.338;6.514;2023-05-14T10:21:36;9.02;;;4.47;;
52180;SDS011;38158;53.338;6.514;2023-05-14T10:24:03;7.18;;;4.13;;
52180;SDS011;38158;53.338;6.514;2023-05-14T10:29:03;12.38;;;4.53;;
52180;SDS011;38158;53.338;6.514;2023-05-14T10:31:45;11.20;;;5.20;;
52180;SDS011;38158;53.338;6.514;2023-05-14T10:37:02;10.43;;;4.60;;
52180;SDS011;38158;53.338;6.514;2023-05-14T10:42:09;8.35;;;4.40;;
52180;SDS011;38158;53.338;6.514;2023-05-14T10:44:50;14.10;;;4.55;;
52180;SDS011;38158;53.338;6.514;2023-05-14T10:47:21;11.35;;;5.60;;
52180;SDS011;38158;53.338;6.514;2023-05-14T10:49:47;6.93;;;4.20;;
52180;SDS011;38158;53.338;6.514;2023-05-14T10:52:15;8.07;;;4.50;;
52180;SDS011;38158;53.338;6.514;2023-05-14T10:57:18;10.52;;;5.03;;
52180;SDS011;38158;53.338;6.514;2023-05-14T10:59:46;9.30;;;5.35;;
52180;SDS011;38158;53.338;6.514;2023-05-14T11:02:20;9.35;;;5.45;;
52180;SDS011;38158;53.338;6.514;2023-05-14T11:04:51;7.82;;;5.20;;
52180;SDS011;38158;53.338;6.514;2023-05-14T11:07:22;9.07;;;5.20;;
52180;SDS011;38158;53.338;6.514;2023-05-14T11:09:51;9.18;;;5.28;;
52180;SDS011;38158;53.338;6.514;2023-05-14T11:12:19;8.52;;;4.68;;
52180;SDS011;38158;53.338;6.514;2023-05-14T11:14:45;6.65;;;5.22;;
52180;SDS011;38158;53.338;6.514;2023-05-14T11:17:11;8.63;;;4.80;;
52180;SDS011;38158;53.338;6.514;2023-05-14T11:19:37;9.20;;;4.35;;
52180;SDS011;38158;53.338;6.514;2023-05-14T11:22:03;9.20;;;5.15;;
52180;SDS011;38158;53.338;6.514;2023-05-14T11:24:29;6.50;;;3.80;;
52180;SDS011;38158;53.338;6.514;2023-05-14T11:26:54;8.13;;;4.30;;
52180;SDS011;38158;53.338;6.514;2023-05-14T11:29:20;8.05;;;4.47;;
52180;SDS011;38158;53.338;6.514;2023-05-14T11:31:46;5.38;;;3.67;;
52180;SDS011;38158;53.338;6.514;2023-05-14T11:34:12;7.78;;;4.60;;
52180;SDS011;38158;53.338;6.514;2023-05-14T11:36:38;8.25;;;4.55;;
52180;SDS011;38158;53.338;6.514;2023-05-14T11:39:04;6.05;;;3.80;;
52180;SDS011;38158;53.338;6.514;2023-05-14T11:41:30;7.32;;;3.75;;
52180;SDS011;38158;53.338;6.514;2023-05-14T11:43:56;10.27;;;4.55;;
52180;SDS011;38158;53.338;6.514;2023-05-14T11:46:22;8.80;;;4.22;;
52180;SDS011;38158;53.338;6.514;2023-05-14T11:48:49;7.18;;;4.03;;
52180;SDS011;38158;53.338;6.514;2023-05-14T11:51:15;9.10;;;3.97;;
52180;SDS011;38158;53.338;6.514;2023-05-14T11:53:41;10.70;;;4.35;;
52180;SDS011;38158;53.338;6.514;2023-05-14T11:56:06;7.28;;;3.90;;
52180;SDS011;38158;53.338;6.514;2023-05-14T11:58:32;10.60;;;5.07;;
52180;SDS011;38158;53.338;6.514;2023-05-14T12:00:58;7.95;;;4.07;;
52180;SDS011;38158;53.338;6.514;2023-05-14T12:03:24;7.25;;;3.80;;
52180;SDS011;38158;53.338;6.514;2023-05-14T12:05:53;7.57;;;3.60;;
52180;SDS011;38158;53.338;6.514;2023-05-14T12:08:20;6.68;;;3.00;;
52180;SDS011;38158;53.338;6.514;2023-05-14T12:10:47;9.77;;;4.18;;
52180;SDS011;38158;53.338;6.514;2023-05-14T12:13:15;7.95;;;4.20;;
52180;SDS011;38158;53.338;6.514;2023-05-14T12:15:45;8.20;;;4.10;;
52180;SDS011;38158;53.338;6.514;2023-05-14T12:18:17;8.35;;;4.88;;
52180;SDS011;38158;53.338;6.514;2023-05-14T12:20:46;9.77;;;4.95;;
52180;SDS011;38158;53.338;6.514;2023-05-14T12:23:13;10.35;;;5.22;;
52180;SDS011;38158;53.338;6.514;2023-05-14T12:25:39;9.23;;;5.38;;
52180;SDS011;38158;53.338;6.514;2023-05-14T12:28:14;10.52;;;6.10;;
52180;SDS011;38158;53.338;6.514;2023-05-14T12:30:41;10.23;;;5.47;;
52180;SDS011;38158;53.338;6.514;2023-05-14T12:33:06;10.82;;;7.38;;
52180;SDS011;38158;53.338;6.514;2023-05-14T12:35:32;11.20;;;6.28;;
52180;SDS011;38158;53.338;6.514;2023-05-14T12:37:58;13.63;;;6.47;;
52180;SDS011;38158;53.338;6.514;2023-05-14T12:40:23;10.23;;;6.32;;
52180;SDS011;38158;53.338;6.514;2023-05-14T12:42:49;13.20;;;6.47;;
52180;SDS011;38158;53.338;6.514;2023-05-14T12:45:15;8.23;;;6.40;;
52180;SDS011;38158;53.338;6.514;2023-05-14T12:47:41;12.52;;;6.50;;
52180;SDS011;38158;53.338;6.514;2023-05-14T12:50:06;9.90;;;5.53;;
52180;SDS011;38158;53.338;6.514;2023-05-14T12:52:32;10.55;;;6.03;;
52180;SDS011;38158;53.338;6.514;2023-05-14T12:54:58;8.77;;;5.45;;
52180;SDS011;38158;53.338;6.514;2023-05-14T12:57:25;8.18;;;5.72;;
52180;SDS011;38158;53.338;6.514;2023-05-14T12:59:51;10.90;;;6.35;;
52180;SDS011;38158;53.338;6.514;2023-05-14T13:02:17;8.98;;;6.00;;
52180;SDS011;38158;53.338;6.514;2023-05-14T13:04:43;11.90;;;5.63;;
52180;SDS011;38158;53.338;6.514;2023-05-14T13:07:09;13.18;;;6.57;;
52180;SDS011;38158;53.338;6.514;2023-05-14T13:09:35;9.63;;;5.88;;
52180;SDS011;38158;53.338;6.514;2023-05-14T13:12:01;7.75;;;4.80;;
52180;SDS011;38158;53.338;6.514;2023-05-14T13:14:27;11.55;;;5.82;;
52180;SDS011;38158;53.338;6.514;2023-05-14T13:16:52;9.18;;;5.47;;
52180;SDS011;38158;53.338;6.514;2023-05-14T13:19:18;9.45;;;5.50;;
52180;SDS011;38158;53.338;6.514;2023-05-14T13:21:43;9.13;;;5.72;;
52180;SDS011;38158;53.338;6.514;2023-05-14T13:24:09;10.07;;;5.63;;
52180;SDS011;38158;53.338;6.514;2023-05-14T13:26:38;11.43;;;5.80;;
52180;SDS011;38158;53.338;6.514;2023-05-14T13:29:03;11.13;;;5.72;;
52180;SDS011;38158;53.338;6.514;2023-05-14T13:31:29;9.00;;;6.43;;
52180;SDS011;38158;53.338;6.514;2023-05-14T13:33:55;8.35;;;5.88;;
52180;SDS011;38158;53.338;6.514;2023-05-14T13:38:47;8.70;;;6.20;;
52180;SDS011;38158;53.338;6.514;2023-05-14T13:41:13;8.70;;;6.03;;
52180;SDS011;38158;53.338;6.514;2023-05-14T13:43:39;12.50;;;6.15;;
52180;SDS011;38158;53.338;6.514;2023-05-14T13:46:04;9.98;;;6.10;;
52180;SDS011;38158;53.338;6.514;2023-05-14T13:48:31;9.95;;;6.22;;
52180;SDS011;38158;53.338;6.514;2023-05-14T13:50:57;15.68;;;7.32;;
52180;SDS011;38158;53.338;6.514;2023-05-14T13:53:23;11.75;;;6.55;;
52180;SDS011;38158;53.338;6.514;2023-05-14T13:55:49;8.13;;;6.20;;
52180;SDS011;38158;53.338;6.514;2023-05-14T13:58:20;9.00;;;5.70;;
52180;SDS011;38158;53.338;6.514;2023-05-14T14:03:12;13.23;;;6.28;;
52180;SDS011;38158;53.338;6.514;2023-05-14T14:05:38;11.25;;;6.45;;
52180;SDS011;38158;53.338;6.514;2023-05-14T14:08:04;9.32;;;6.68;;
52180;SDS011;38158;53.338;6.514;2023-05-14T14:10:30;8.23;;;5.72;;
52180;SDS011;38158;53.338;6.514;2023-05-14T14:12:55;10.40;;;6.20;;
52180;SDS011;38158;53.338;6.514;2023-05-14T14:15:21;10.40;;;6.00;;
52180;SDS011;38158;53.338;6.514;2023-05-14T14:17:47;10.93;;;5.90;;
52180;SDS011;38158;53.338;6.514;2023-05-14T14:20:13;13.18;;;6.72;;
52180;SDS011;38158;53.338;6.514;2023-05-14T14:22:39;11.67;;;7.20;;
52180;SDS011;38158;53.338;6.514;2023-05-14T14:25:07;11.45;;;6.35;;
52180;SDS011;38158;53.338;6.514;2023-05-14T14:27:33;10.80;;;6.93;;
52180;SDS011;38158;53.338;6.514;2023-05-14T14:30:03;11.05;;;7.32;;
52180;SDS011;38158;53.338;6.514;2023-05-14T14:32:33;13.52;;;6.95;;
52180;SDS011;38158;53.338;6.514;2023-05-14T14:34:59;12.60;;;7.23;;
52180;SDS011;38158;53.338;6.514;2023-05-14T14:37:25;8.30;;;6.82;;
52180;SDS011;38158;53.338;6.514;2023-05-14T14:39:51;13.57;;;6.88;;
52180;SDS011;38158;53.338;6.514;2023-05-14T14:42:16;9.55;;;6.60;;
52180;SDS011;38158;53.338;6.514;2023-05-14T14:44:42;9.90;;;7.05;;
52180;SDS011;38158;53.338;6.514;2023-05-14T14:47:08;13.55;;;6.85;;
52180;SDS011;38158;53.338;6.514;2023-05-14T14:49:33;9.85;;;6.22;;
52180;SDS011;38158;53.338;6.514;2023-05-14T14:52:00;9.93;;;7.10;;
52180;SDS011;38158;53.338;6.514;2023-05-14T14:54:26;10.32;;;7.13;;
52180;SDS011;38158;53.338;6.514;2023-05-14T14:56:51;13.15;;;6.55;;
52180;SDS011;38158;53.338;6.514;2023-05-14T14:59:17;11.45;;;6.80;;
52180;SDS011;38158;53.338;6.514;2023-05-14T15:01:43;12.05;;;6.72;;